sensor_id;sensor_type;location;lat;lon;timestamp;P1;durP1;ratioP1;P2;durP2;ratioP2
28545;SDS011;15749;49.606;8.738;2022-10-13T00:00:33;8.07;;;7.23;;
28545;SDS011;15749;49.606;8.738;2022-10-13T00:03:20;8.27;;;6.70;;
28545;SDS011;15749;49.606;8.738;2022-10-13T00:06:09;8.53;;;7.47;;
28545;SDS011;15749;49.606;8.738;2022-10-13T00:08:57;9.40;;;8.40;;
28545;SDS011;15749;49.606;8.738;2022-10-13T00:11:45;24.47;;;8.63;;
28545;SDS011;15749;49.606;8.738;2022-10-13T00:14:32;9.27;;;8.27;;
28545;SDS011;15749;49.606;8.738;2022-10-13T00:17:21;8.97;;;8.17;;
28545;SDS011;15749;49.606;8.738;2022-10-13T00:20:09;9.37;;;6.53;;
28545;SDS011;15749;49.606;8.738;2022-10-13T00:22:57;12.67;;;6.90;;
28545;SDS011;15749;49.606;8.738;2022-10-13T00:25:45;7.97;;;7.00;;
28545;SDS011;15749;49.606;8.738;2022-10-13T00:28:35;9.10;;;7.27;;
28545;SDS011;15749;49.606;8.738;2022-10-13T00:31:24;12.70;;;7.63;;
28545;SDS011;15749;49.606;8.738;2022-10-13T00:34:15;12.50;;;8.83;;
28545;SDS011;15749;49.606;8.738;2022-10-13T00:37:03;9.20;;;8.13;;
28545;SDS011;15749;49.606;8.738;2022-10-13T00:39:51;14.23;;;8.13;;
28545;SDS011;15749;49.606;8.738;2022-10-13T00:42:41;11.37;;;8.60;;
28545;SDS011;15749;49.606;8.738;2022-10-13T00:45:29;8.10;;;7.30;;
28545;SDS011;15749;49.606;8.738;2022-10-13T00:48:17;11.60;;;8.20;;
28545;SDS011;15749;49.606;8.738;2022-10-13T00:51:10;15.87;;;9.27;;
28545;SDS011;15749;49.606;8.738;2022-10-13T00:54:01;10.07;;;8.40;;
28545;SDS011;15749;49.606;8.738;2022-10-13T00:56:51;10.37;;;8.30;;
28545;SDS011;15749;49.606;8.738;2022-10-13T00:59:40;14.53;;;8.77;;
28545;SDS011;15749;49.606;8.738;2022-10-13T01:02:28;9.27;;;8.10;;
28545;SDS011;15749;49.606;8.738;2022-10-13T01:05:20;14.83;;;9.03;;
28545;SDS011;15749;49.606;8.738;2022-10-13T01:08:13;9.27;;;7.43;;
28545;SDS011;15749;49.606;8.738;2022-10-13T01:11:05;8.17;;;7.40;;
28545;SDS011;15749;49.606;8.738;2022-10-13T01:14:06;7.60;;;6.90;;
28545;SDS011;15749;49.606;8.738;2022-10-13T01:17:05;7.10;;;6.40;;
28545;SDS011;15749;49.606;8.738;2022-10-13T01:20:12;8.13;;;6.03;;
28545;SDS011;15749;49.606;8.738;2022-10-13T01:27:28;18.60;;;7.00;;
28545;SDS011;15749;49.606;8.738;2022-10-13T01:30:53;7.00;;;6.40;;
28545;SDS011;15749;49.606;8.738;2022-10-13T01:33:48;13.50;;;7.13;;
28545;SDS011;15749;49.606;8.738;2022-10-13T01:36:48;7.63;;;6.97;;
28545;SDS011;15749;49.606;8.738;2022-10-13T01:39:49;10.77;;;7.20;;
28545;SDS011;15749;49.606;8.738;2022-10-13T01:42:48;10.13;;;6.87;;
28545;SDS011;15749;49.606;8.738;2022-10-13T01:45:44;8.40;;;7.50;;
28545;SDS011;15749;49.606;8.738;2022-10-13T01:48:40;8.90;;;7.53;;
28545;SDS011;15749;49.606;8.738;2022-10-13T01:51:29;9.03;;;6.97;;
28545;SDS011;15749;49.606;8.738;2022-10-13T01:54:18;9.10;;;6.87;;
28545;SDS011;15749;49.606;8.738;2022-10-13T02:00:19;6.53;;;6.03;;
28545;SDS011;15749;49.606;8.738;2022-10-13T02:03:09;15.70;;;5.83;;
28545;SDS011;15749;49.606;8.738;2022-10-13T02:06:11;6.07;;;5.57;;
28545;SDS011;15749;49.606;8.738;2022-10-13T02:09:07;6.10;;;5.60;;
28545;SDS011;15749;49.606;8.738;2022-10-13T02:12:01;5.77;;;5.30;;
28545;SDS011;15749;49.606;8.738;2022-10-13T02:14:56;5.80;;;5.30;;
28545;SDS011;15749;49.606;8.738;2022-10-13T02:17:45;5.70;;;5.20;;
28545;SDS011;15749;49.606;8.738;2022-10-13T02:20:32;6.47;;;5.70;;
28545;SDS011;15749;49.606;8.738;2022-10-13T02:23:22;7.17;;;6.47;;
28545;SDS011;15749;49.606;8.738;2022-10-13T02:26:10;7.07;;;6.47;;
28545;SDS011;15749;49.606;8.738;2022-10-13T02:28:58;10.63;;;6.63;;
28545;SDS011;15749;49.606;8.738;2022-10-13T02:31:48;6.37;;;5.83;;
28545;SDS011;15749;49.606;8.738;2022-10-13T02:34:36;5.87;;;5.37;;
28545;SDS011;15749;49.606;8.738;2022-10-13T02:37:24;8.03;;;7.10;;
28545;SDS011;15749;49.606;8.738;2022-10-13T02:40:12;8.03;;;7.30;;
28545;SDS011;15749;49.606;8.738;2022-10-13T02:43:00;8.50;;;7.70;;
28545;SDS011;15749;49.606;8.738;2022-10-13T02:45:48;7.37;;;6.67;;
28545;SDS011;15749;49.606;8.738;2022-10-13T02:48:36;7.20;;;6.57;;
28545;SDS011;15749;49.606;8.738;2022-10-13T02:51:23;7.67;;;6.90;;
28545;SDS011;15749;49.606;8.738;2022-10-13T02:54:10;10.00;;;6.53;;
28545;SDS011;15749;49.606;8.738;2022-10-13T02:56:59;7.40;;;6.70;;
28545;SDS011;15749;49.606;8.738;2022-10-13T02:59:47;6.73;;;6.13;;
28545;SDS011;15749;49.606;8.738;2022-10-13T03:02:34;6.57;;;6.00;;
28545;SDS011;15749;49.606;8.738;2022-10-13T03:05:22;7.00;;;6.40;;
28545;SDS011;15749;49.606;8.738;2022-10-13T03:08:09;28.07;;;8.00;;
28545;SDS011;15749;49.606;8.738;2022-10-13T03:10:57;8.37;;;7.57;;
28545;SDS011;15749;49.606;8.738;2022-10-13T03:13:46;7.27;;;6.50;;
28545;SDS011;15749;49.606;8.738;2022-10-13T03:16:34;8.37;;;7.67;;
28545;SDS011;15749;49.606;8.738;2022-10-13T03:19:27;10.90;;;8.43;;
28545;SDS011;15749;49.606;8.738;2022-10-13T03:22:15;11.57;;;8.63;;
28545;SDS011;15749;49.606;8.738;2022-10-13T03:25:03;8.20;;;7.50;;
28545;SDS011;15749;49.606;8.738;2022-10-13T03:27:52;6.43;;;5.93;;
28545;SDS011;15749;49.606;8.738;2022-10-13T03:30:42;6.50;;;5.90;;
28545;SDS011;15749;49.606;8.738;2022-10-13T03:33:30;8.17;;;7.40;;
28545;SDS011;15749;49.606;8.738;2022-10-13T03:36:18;9.47;;;8.57;;
28545;SDS011;15749;49.606;8.738;2022-10-13T03:39:07;8.47;;;7.67;;
28545;SDS011;15749;49.606;8.738;2022-10-13T03:41:54;12.57;;;7.60;;
28545;SDS011;15749;49.606;8.738;2022-10-13T03:44:41;7.77;;;7.07;;
28545;SDS011;15749;49.606;8.738;2022-10-13T03:47:30;7.07;;;6.40;;
28545;SDS011;15749;49.606;8.738;2022-10-13T03:50:20;7.17;;;6.57;;
28545;SDS011;15749;49.606;8.738;2022-10-13T03:53:07;9.10;;;7.10;;
28545;SDS011;15749;49.606;8.738;2022-10-13T03:55:56;6.97;;;6.33;;
28545;SDS011;15749;49.606;8.738;2022-10-13T03:58:44;12.93;;;7.87;;
28545;SDS011;15749;49.606;8.738;2022-10-13T04:01:31;6.57;;;5.97;;
28545;SDS011;15749;49.606;8.738;2022-10-13T04:04:21;8.20;;;7.40;;
28545;SDS011;15749;49.606;8.738;2022-10-13T04:07:13;10.60;;;7.13;;
28545;SDS011;15749;49.606;8.738;2022-10-13T04:10:00;6.70;;;6.10;;
28545;SDS011;15749;49.606;8.738;2022-10-13T04:12:54;14.27;;;7.10;;
28545;SDS011;15749;49.606;8.738;2022-10-13T04:15:41;7.93;;;6.33;;
28545;SDS011;15749;49.606;8.738;2022-10-13T04:18:28;9.13;;;6.83;;
28545;SDS011;15749;49.606;8.738;2022-10-13T04:21:18;7.97;;;6.93;;
28545;SDS011;15749;49.606;8.738;2022-10-13T04:24:05;6.50;;;5.97;;
28545;SDS011;15749;49.606;8.738;2022-10-13T04:26:55;7.40;;;6.70;;
28545;SDS011;15749;49.606;8.738;2022-10-13T04:29:42;6.73;;;6.03;;
28545;SDS011;15749;49.606;8.738;2022-10-13T04:32:29;7.63;;;6.93;;
28545;SDS011;15749;49.606;8.738;2022-10-13T04:35:20;6.93;;;6.27;;
28545;SDS011;15749;49.606;8.738;2022-10-13T04:38:08;9.03;;;6.73;;
28545;SDS011;15749;49.606;8.738;2022-10-13T04:40:56;6.90;;;6.30;;
28545;SDS011;15749;49.606;8.738;2022-10-13T04:43:46;6.90;;;6.20;;
28545;SDS011;15749;49.606;8.738;2022-10-13T04:46:34;6.03;;;5.53;;
28545;SDS011;15749;49.606;8.738;2022-10-13T04:49:22;10.03;;;5.50;;
28545;SDS011;15749;49.606;8.738;2022-10-13T04:52:10;10.90;;;6.30;;
28545;SDS011;15749;49.606;8.738;2022-10-13T04:54:59;7.07;;;5.90;;
28545;SDS011;15749;49.606;8.738;2022-10-13T04:57:46;5.30;;;4.90;;
28545;SDS011;15749;49.606;8.738;2022-10-13T05:00:34;5.23;;;4.83;;
28545;SDS011;15749;49.606;8.738;2022-10-13T05:03:21;6.17;;;5.67;;
28545;SDS011;15749;49.606;8.738;2022-10-13T05:06:13;6.53;;;5.93;;
28545;SDS011;15749;49.606;8.738;2022-10-13T05:09:04;7.93;;;6.37;;
28545;SDS011;15749;49.606;8.738;2022-10-13T05:11:53;7.83;;;7.10;;
28545;SDS011;15749;49.606;8.738;2022-10-13T05:14:41;12.67;;;7.47;;
28545;SDS011;15749;49.606;8.738;2022-10-13T05:17:29;8.03;;;7.33;;
28545;SDS011;15749;49.606;8.738;2022-10-13T05:20:25;6.73;;;6.23;;
28545;SDS011;15749;49.606;8.738;2022-10-13T05:23:12;10.37;;;7.27;;
28545;SDS011;15749;49.606;8.738;2022-10-13T05:26:01;7.90;;;7.20;;
28545;SDS011;15749;49.606;8.738;2022-10-13T05:28:51;9.03;;;6.37;;
28545;SDS011;15749;49.606;8.738;2022-10-13T05:31:39;7.90;;;7.10;;
28545;SDS011;15749;49.606;8.738;2022-10-13T05:34:26;7.97;;;7.07;;
28545;SDS011;15749;49.606;8.738;2022-10-13T05:37:14;9.20;;;6.50;;
28545;SDS011;15749;49.606;8.738;2022-10-13T05:40:03;8.00;;;5.87;;
28545;SDS011;15749;49.606;8.738;2022-10-13T05:42:51;7.10;;;5.60;;
28545;SDS011;15749;49.606;8.738;2022-10-13T05:45:41;7.23;;;6.47;;
28545;SDS011;15749;49.606;8.738;2022-10-13T05:48:28;6.67;;;6.17;;
28545;SDS011;15749;49.606;8.738;2022-10-13T05:51:16;6.83;;;6.23;;
28545;SDS011;15749;49.606;8.738;2022-10-13T05:54:09;6.37;;;5.87;;
28545;SDS011;15749;49.606;8.738;2022-10-13T05:57:03;5.20;;;4.80;;
28545;SDS011;15749;49.606;8.738;2022-10-13T06:00:04;5.23;;;4.83;;
28545;SDS011;15749;49.606;8.738;2022-10-13T06:03:01;4.67;;;4.27;;
28545;SDS011;15749;49.606;8.738;2022-10-13T06:05:35;5.43;;;5.03;;
28545;SDS011;15749;49.606;8.738;2022-10-13T06:08:06;6.77;;;6.17;;
28545;SDS011;15749;49.606;8.738;2022-10-13T06:10:36;8.50;;;7.80;;
28545;SDS011;15749;49.606;8.738;2022-10-13T06:13:05;9.43;;;7.40;;
28545;SDS011;15749;49.606;8.738;2022-10-13T06:15:34;6.20;;;5.70;;
28545;SDS011;15749;49.606;8.738;2022-10-13T06:18:07;6.80;;;6.03;;
28545;SDS011;15749;49.606;8.738;2022-10-13T06:20:37;5.90;;;5.47;;
28545;SDS011;15749;49.606;8.738;2022-10-13T06:23:06;7.37;;;6.00;;
28545;SDS011;15749;49.606;8.738;2022-10-13T06:25:35;6.07;;;5.57;;
28545;SDS011;15749;49.606;8.738;2022-10-13T06:28:04;6.17;;;5.67;;
28545;SDS011;15749;49.606;8.738;2022-10-13T06:30:33;6.37;;;5.77;;
28545;SDS011;15749;49.606;8.738;2022-10-13T06:33:02;6.07;;;5.57;;
28545;SDS011;15749;49.606;8.738;2022-10-13T06:35:33;6.00;;;5.50;;
28545;SDS011;15749;49.606;8.738;2022-10-13T06:38:03;6.00;;;5.50;;
28545;SDS011;15749;49.606;8.738;2022-10-13T06:40:32;7.13;;;6.43;;
28545;SDS011;15749;49.606;8.738;2022-10-13T06:43:01;6.67;;;6.07;;
28545;SDS011;15749;49.606;8.738;2022-10-13T06:45:39;6.23;;;5.73;;
28545;SDS011;15749;49.606;8.738;2022-10-13T06:48:13;5.63;;;5.13;;
28545;SDS011;15749;49.606;8.738;2022-10-13T06:50:46;7.87;;;7.07;;
28545;SDS011;15749;49.606;8.738;2022-10-13T06:53:22;13.90;;;7.37;;
28545;SDS011;15749;49.606;8.738;2022-10-13T06:55:54;7.03;;;6.43;;
28545;SDS011;15749;49.606;8.738;2022-10-13T06:58:24;6.47;;;5.97;;
28545;SDS011;15749;49.606;8.738;2022-10-13T07:00:54;6.33;;;5.73;;
28545;SDS011;15749;49.606;8.738;2022-10-13T07:03:26;6.07;;;5.57;;
28545;SDS011;15749;49.606;8.738;2022-10-13T07:06:00;6.67;;;6.10;;
28545;SDS011;15749;49.606;8.738;2022-10-13T07:08:29;7.83;;;7.13;;
28545;SDS011;15749;49.606;8.738;2022-10-13T07:11:04;8.70;;;7.97;;
28545;SDS011;15749;49.606;8.738;2022-10-13T07:13:41;8.13;;;7.43;;
28545;SDS011;15749;49.606;8.738;2022-10-13T07:16:14;8.83;;;8.03;;
28545;SDS011;15749;49.606;8.738;2022-10-13T07:18:45;7.70;;;7.10;;
28545;SDS011;15749;49.606;8.738;2022-10-13T07:21:16;8.00;;;7.23;;
28545;SDS011;15749;49.606;8.738;2022-10-13T07:23:46;18.20;;;8.37;;
28545;SDS011;15749;49.606;8.738;2022-10-13T07:26:15;8.10;;;7.40;;
28545;SDS011;15749;49.606;8.738;2022-10-13T07:28:44;8.23;;;7.33;;
28545;SDS011;15749;49.606;8.738;2022-10-13T07:31:14;7.17;;;6.47;;
28545;SDS011;15749;49.606;8.738;2022-10-13T07:33:47;7.50;;;6.90;;
28545;SDS011;15749;49.606;8.738;2022-10-13T07:36:19;6.77;;;6.17;;
28545;SDS011;15749;49.606;8.738;2022-10-13T07:38:50;11.43;;;7.53;;
28545;SDS011;15749;49.606;8.738;2022-10-13T07:41:19;9.33;;;8.43;;
28545;SDS011;15749;49.606;8.738;2022-10-13T07:43:53;8.50;;;7.43;;
28545;SDS011;15749;49.606;8.738;2022-10-13T07:46:22;7.73;;;6.93;;
28545;SDS011;15749;49.606;8.738;2022-10-13T07:48:52;8.70;;;7.90;;
28545;SDS011;15749;49.606;8.738;2022-10-13T07:51:23;8.47;;;7.67;;
28545;SDS011;15749;49.606;8.738;2022-10-13T07:53:52;8.00;;;7.20;;
28545;SDS011;15749;49.606;8.738;2022-10-13T07:56:22;7.40;;;6.80;;
28545;SDS011;15749;49.606;8.738;2022-10-13T07:58:51;8.17;;;7.40;;
28545;SDS011;15749;49.606;8.738;2022-10-13T08:01:20;7.60;;;6.90;;
28545;SDS011;15749;49.606;8.738;2022-10-13T08:03:49;8.20;;;7.40;;
28545;SDS011;15749;49.606;8.738;2022-10-13T08:06:22;8.73;;;7.93;;
28545;SDS011;15749;49.606;8.738;2022-10-13T08:08:54;8.10;;;7.40;;
28545;SDS011;15749;49.606;8.738;2022-10-13T08:11:24;8.17;;;7.40;;
28545;SDS011;15749;49.606;8.738;2022-10-13T08:13:54;9.23;;;8.33;;
28545;SDS011;15749;49.606;8.738;2022-10-13T08:16:27;20.97;;;9.40;;
28545;SDS011;15749;49.606;8.738;2022-10-13T08:18:56;9.03;;;8.23;;
28545;SDS011;15749;49.606;8.738;2022-10-13T08:21:27;14.57;;;9.23;;
28545;SDS011;15749;49.606;8.738;2022-10-13T08:24:17;9.80;;;8.90;;
28545;SDS011;15749;49.606;8.738;2022-10-13T08:26:48;9.27;;;8.47;;
28545;SDS011;15749;49.606;8.738;2022-10-13T08:29:18;11.00;;;8.93;;
28545;SDS011;15749;49.606;8.738;2022-10-13T08:31:49;14.17;;;8.87;;
28545;SDS011;15749;49.606;8.738;2022-10-13T08:34:20;12.70;;;9.87;;
28545;SDS011;15749;49.606;8.738;2022-10-13T08:36:51;10.70;;;8.77;;
28545;SDS011;15749;49.606;8.738;2022-10-13T08:39:23;8.13;;;7.43;;
28545;SDS011;15749;49.606;8.738;2022-10-13T08:41:52;8.77;;;7.97;;
28545;SDS011;15749;49.606;8.738;2022-10-13T08:44:24;8.53;;;7.50;;
28545;SDS011;15749;49.606;8.738;2022-10-13T08:47:27;7.37;;;6.77;;
28545;SDS011;15749;49.606;8.738;2022-10-13T08:50:09;9.07;;;8.17;;
28545;SDS011;15749;49.606;8.738;2022-10-13T08:52:46;11.47;;;7.40;;
28545;SDS011;15749;49.606;8.738;2022-10-13T08:55:25;7.77;;;7.07;;
28545;SDS011;15749;49.606;8.738;2022-10-13T08:57:59;6.73;;;6.13;;
28545;SDS011;15749;49.606;8.738;2022-10-13T09:00:33;7.30;;;6.60;;
28545;SDS011;15749;49.606;8.738;2022-10-13T09:03:07;6.57;;;5.73;;
28545;SDS011;15749;49.606;8.738;2022-10-13T09:05:55;7.40;;;6.63;;
28545;SDS011;15749;49.606;8.738;2022-10-13T09:08:37;7.33;;;6.63;;
28545;SDS011;15749;49.606;8.738;2022-10-13T09:11:11;8.43;;;7.10;;
28545;SDS011;15749;49.606;8.738;2022-10-13T09:13:41;6.60;;;6.10;;
28545;SDS011;15749;49.606;8.738;2022-10-13T09:16:11;6.37;;;5.87;;
28545;SDS011;15749;49.606;8.738;2022-10-13T09:18:40;5.63;;;5.20;;
28545;SDS011;15749;49.606;8.738;2022-10-13T09:21:18;5.67;;;5.17;;
28545;SDS011;15749;49.606;8.738;2022-10-13T09:23:52;6.40;;;5.80;;
28545;SDS011;15749;49.606;8.738;2022-10-13T09:26:35;6.07;;;5.50;;
28545;SDS011;15749;49.606;8.738;2022-10-13T09:29:09;6.17;;;5.30;;
28545;SDS011;15749;49.606;8.738;2022-10-13T09:31:44;6.20;;;5.20;;
28545;SDS011;15749;49.606;8.738;2022-10-13T09:34:14;5.60;;;5.10;;
28545;SDS011;15749;49.606;8.738;2022-10-13T09:36:58;5.90;;;5.40;;
28545;SDS011;15749;49.606;8.738;2022-10-13T09:39:30;4.63;;;4.23;;
28545;SDS011;15749;49.606;8.738;2022-10-13T09:42:08;5.10;;;4.67;;
28545;SDS011;15749;49.606;8.738;2022-10-13T09:44:56;5.20;;;4.80;;
28545;SDS011;15749;49.606;8.738;2022-10-13T09:47:29;5.47;;;5.03;;
28545;SDS011;15749;49.606;8.738;2022-10-13T09:50:01;6.37;;;5.87;;
28545;SDS011;15749;49.606;8.738;2022-10-13T09:52:42;129.30;;;11.40;;
28545;SDS011;15749;49.606;8.738;2022-10-13T09:55:28;7.63;;;6.83;;
28545;SDS011;15749;49.606;8.738;2022-10-13T09:58:02;7.30;;;6.00;;
28545;SDS011;15749;49.606;8.738;2022-10-13T10:00:35;7.57;;;6.70;;
28545;SDS011;15749;49.606;8.738;2022-10-13T10:03:36;6.70;;;6.10;;
28545;SDS011;15749;49.606;8.738;2022-10-13T10:06:10;7.03;;;6.43;;
28545;SDS011;15749;49.606;8.738;2022-10-13T10:08:45;7.33;;;6.67;;
28545;SDS011;15749;49.606;8.738;2022-10-13T10:12:08;7.67;;;6.87;;
28545;SDS011;15749;49.606;8.738;2022-10-13T10:15:58;7.00;;;6.33;;
28545;SDS011;15749;49.606;8.738;2022-10-13T10:24:27;12.77;;;7.60;;
28545;SDS011;15749;49.606;8.738;2022-10-13T10:32:48;18.90;;;8.40;;
28545;SDS011;15749;49.606;8.738;2022-10-13T10:37:39;15.87;;;7.03;;
28545;SDS011;15749;49.606;8.738;2022-10-13T10:45:07;10.60;;;8.30;;
28545;SDS011;15749;49.606;8.738;2022-10-13T10:49:37;12.03;;;8.60;;
28545;SDS011;15749;49.606;8.738;2022-10-13T10:54:12;15.20;;;7.23;;
28545;SDS011;15749;49.606;8.738;2022-10-13T11:22:39;7.00;;;5.87;;
28545;SDS011;15749;49.606;8.738;2022-10-13T11:26:17;6.97;;;6.00;;
28545;SDS011;15749;49.606;8.738;2022-10-13T12:20:00;9.80;;;7.93;;
28545;SDS011;15749;49.606;8.738;2022-10-13T12:23:47;14.13;;;9.40;;
28545;SDS011;15749;49.606;8.738;2022-10-13T12:27:10;10.93;;;9.57;;
28545;SDS011;15749;49.606;8.738;2022-10-13T12:29:52;13.97;;;10.03;;
28545;SDS011;15749;49.606;8.738;2022-10-13T12:32:23;10.57;;;9.43;;
28545;SDS011;15749;49.606;8.738;2022-10-13T12:34:56;10.27;;;9.30;;
28545;SDS011;15749;49.606;8.738;2022-10-13T12:37:43;11.93;;;9.50;;
28545;SDS011;15749;49.606;8.738;2022-10-13T12:40:13;34.83;;;11.70;;
28545;SDS011;15749;49.606;8.738;2022-10-13T12:42:45;23.57;;;11.17;;
28545;SDS011;15749;49.606;8.738;2022-10-13T12:45:16;34.03;;;11.63;;
28545;SDS011;15749;49.606;8.738;2022-10-13T12:47:48;13.43;;;10.30;;
28545;SDS011;15749;49.606;8.738;2022-10-13T12:50:30;25.63;;;11.47;;
28545;SDS011;15749;49.606;8.738;2022-10-13T12:53:13;11.40;;;10.23;;
28545;SDS011;15749;49.606;8.738;2022-10-13T12:55:47;11.60;;;10.07;;
28545;SDS011;15749;49.606;8.738;2022-10-13T12:58:27;11.73;;;9.43;;
28545;SDS011;15749;49.606;8.738;2022-10-13T13:01:23;11.33;;;9.70;;
28545;SDS011;15749;49.606;8.738;2022-10-13T13:03:57;11.27;;;9.77;;
28545;SDS011;15749;49.606;8.738;2022-10-13T13:06:31;16.27;;;9.63;;
28545;SDS011;15749;49.606;8.738;2022-10-13T13:12:02;12.83;;;11.20;;
28545;SDS011;15749;49.606;8.738;2022-10-13T13:14:50;14.23;;;11.23;;
28545;SDS011;15749;49.606;8.738;2022-10-13T13:17:22;14.07;;;12.73;;
28545;SDS011;15749;49.606;8.738;2022-10-13T13:20:20;18.33;;;12.23;;
28545;SDS011;15749;49.606;8.738;2022-10-13T13:22:55;11.00;;;9.90;;
28545;SDS011;15749;49.606;8.738;2022-10-13T13:25:24;12.37;;;10.20;;
28545;SDS011;15749;49.606;8.738;2022-10-13T13:27:54;24.87;;;11.83;;
28545;SDS011;15749;49.606;8.738;2022-10-13T13:30:23;12.63;;;11.27;;
28545;SDS011;15749;49.606;8.738;2022-10-13T13:32:53;13.73;;;10.53;;
28545;SDS011;15749;49.606;8.738;2022-10-13T13:35:22;11.40;;;10.20;;
28545;SDS011;15749;49.606;8.738;2022-10-13T13:37:51;10.80;;;9.70;;
28545;SDS011;15749;49.606;8.738;2022-10-13T13:40:23;16.00;;;10.63;;
28545;SDS011;15749;49.606;8.738;2022-10-13T13:42:54;12.40;;;11.10;;
28545;SDS011;15749;49.606;8.738;2022-10-13T13:45:30;11.30;;;10.23;;
28545;SDS011;15749;49.606;8.738;2022-10-13T13:48:01;12.30;;;11.03;;
28545;SDS011;15749;49.606;8.738;2022-10-13T13:50:31;36.00;;;11.93;;
28545;SDS011;15749;49.606;8.738;2022-10-13T13:53:02;12.73;;;11.37;;
28545;SDS011;15749;49.606;8.738;2022-10-13T13:55:33;16.90;;;11.57;;
28545;SDS011;15749;49.606;8.738;2022-10-13T13:58:04;12.80;;;11.47;;
28545;SDS011;15749;49.606;8.738;2022-10-13T14:00:33;12.90;;;11.77;;
28545;SDS011;15749;49.606;8.738;2022-10-13T14:03:02;11.63;;;10.33;;
28545;SDS011;15749;49.606;8.738;2022-10-13T14:05:32;12.80;;;11.50;;
28545;SDS011;15749;49.606;8.738;2022-10-13T14:08:01;11.37;;;10.27;;
28545;SDS011;15749;49.606;8.738;2022-10-13T14:10:30;11.87;;;10.70;;
28545;SDS011;15749;49.606;8.738;2022-10-13T14:13:00;13.00;;;11.13;;
28545;SDS011;15749;49.606;8.738;2022-10-13T14:15:29;11.23;;;10.10;;
28545;SDS011;15749;49.606;8.738;2022-10-13T14:17:59;13.50;;;10.30;;
28545;SDS011;15749;49.606;8.738;2022-10-13T14:20:28;11.37;;;9.90;;
28545;SDS011;15749;49.606;8.738;2022-10-13T14:22:57;37.90;;;11.23;;
28545;SDS011;15749;49.606;8.738;2022-10-13T14:25:26;10.13;;;9.23;;
28545;SDS011;15749;49.606;8.738;2022-10-13T14:27:55;12.00;;;10.77;;
28545;SDS011;15749;49.606;8.738;2022-10-13T14:30:25;18.63;;;11.10;;
28545;SDS011;15749;49.606;8.738;2022-10-13T14:32:54;13.53;;;10.27;;
28545;SDS011;15749;49.606;8.738;2022-10-13T14:35:24;11.20;;;10.10;;
28545;SDS011;15749;49.606;8.738;2022-10-13T14:37:53;12.47;;;10.00;;
28545;SDS011;15749;49.606;8.738;2022-10-13T14:40:23;12.13;;;9.57;;
28545;SDS011;15749;49.606;8.738;2022-10-13T14:42:52;37.57;;;10.97;;
28545;SDS011;15749;49.606;8.738;2022-10-13T14:45:21;9.77;;;8.77;;
28545;SDS011;15749;49.606;8.738;2022-10-13T14:47:52;9.20;;;8.30;;
28545;SDS011;15749;49.606;8.738;2022-10-13T14:50:21;62.63;;;11.47;;
28545;SDS011;15749;49.606;8.738;2022-10-13T14:52:54;18.03;;;8.93;;
28545;SDS011;15749;49.606;8.738;2022-10-13T14:55:24;12.37;;;9.77;;
28545;SDS011;15749;49.606;8.738;2022-10-13T14:57:53;46.23;;;9.70;;
28545;SDS011;15749;49.606;8.738;2022-10-13T15:00:22;11.60;;;9.43;;
28545;SDS011;15749;49.606;8.738;2022-10-13T15:02:52;13.57;;;8.57;;
28545;SDS011;15749;49.606;8.738;2022-10-13T15:05:24;11.00;;;8.63;;
28545;SDS011;15749;49.606;8.738;2022-10-13T15:07:53;13.77;;;8.77;;
28545;SDS011;15749;49.606;8.738;2022-10-13T15:10:22;10.57;;;8.63;;
28545;SDS011;15749;49.606;8.738;2022-10-13T15:12:51;12.33;;;8.50;;
28545;SDS011;15749;49.606;8.738;2022-10-13T15:15:21;12.63;;;9.90;;
28545;SDS011;15749;49.606;8.738;2022-10-13T15:17:54;12.17;;;9.57;;
28545;SDS011;15749;49.606;8.738;2022-10-13T15:20:23;11.47;;;9.73;;
28545;SDS011;15749;49.606;8.738;2022-10-13T15:22:52;44.90;;;10.83;;
28545;SDS011;15749;49.606;8.738;2022-10-13T15:25:21;9.30;;;8.40;;
28545;SDS011;15749;49.606;8.738;2022-10-13T15:27:50;7.80;;;7.03;;
28545;SDS011;15749;49.606;8.738;2022-10-13T15:30:19;9.50;;;7.83;;
28545;SDS011;15749;49.606;8.738;2022-10-13T15:32:49;8.20;;;7.40;;
28545;SDS011;15749;49.606;8.738;2022-10-13T15:35:20;7.70;;;7.00;;
28545;SDS011;15749;49.606;8.738;2022-10-13T15:37:49;7.67;;;6.97;;
28545;SDS011;15749;49.606;8.738;2022-10-13T15:40:18;9.50;;;8.53;;
28545;SDS011;15749;49.606;8.738;2022-10-13T15:42:47;9.03;;;8.03;;
28545;SDS011;15749;49.606;8.738;2022-10-13T15:45:16;48.17;;;9.00;;
28545;SDS011;15749;49.606;8.738;2022-10-13T15:47:45;7.73;;;6.63;;
28545;SDS011;15749;49.606;8.738;2022-10-13T15:50:15;13.07;;;7.93;;
28545;SDS011;15749;49.606;8.738;2022-10-13T15:52:45;12.27;;;9.47;;
28545;SDS011;15749;49.606;8.738;2022-10-13T15:55:14;9.93;;;8.90;;
28545;SDS011;15749;49.606;8.738;2022-10-13T15:57:44;8.43;;;7.60;;
28545;SDS011;15749;49.606;8.738;2022-10-13T16:00:13;8.80;;;6.97;;
28545;SDS011;15749;49.606;8.738;2022-10-13T16:02:43;19.13;;;7.77;;
28545;SDS011;15749;49.606;8.738;2022-10-13T16:05:17;14.97;;;8.67;;
28545;SDS011;15749;49.606;8.738;2022-10-13T16:07:48;12.67;;;9.43;;
28545;SDS011;15749;49.606;8.738;2022-10-13T16:10:17;17.20;;;9.20;;
28545;SDS011;15749;49.606;8.738;2022-10-13T16:12:46;82.87;;;12.53;;
28545;SDS011;15749;49.606;8.738;2022-10-13T16:15:16;12.70;;;10.03;;
28545;SDS011;15749;49.606;8.738;2022-10-13T16:17:46;12.27;;;8.50;;
28545;SDS011;15749;49.606;8.738;2022-10-13T16:20:15;23.93;;;10.37;;
28545;SDS011;15749;49.606;8.738;2022-10-13T16:22:44;16.97;;;9.57;;
28545;SDS011;15749;49.606;8.738;2022-10-13T16:25:14;51.70;;;11.07;;
28545;SDS011;15749;49.606;8.738;2022-10-13T16:27:44;12.77;;;9.70;;
28545;SDS011;15749;49.606;8.738;2022-10-13T16:30:13;15.93;;;9.63;;
28545;SDS011;15749;49.606;8.738;2022-10-13T16:32:42;19.03;;;10.27;;
28545;SDS011;15749;49.606;8.738;2022-10-13T16:35:11;12.20;;;10.20;;
28545;SDS011;15749;49.606;8.738;2022-10-13T16:37:40;12.43;;;9.47;;
28545;SDS011;15749;49.606;8.738;2022-10-13T16:40:10;12.37;;;8.70;;
28545;SDS011;15749;49.606;8.738;2022-10-13T16:42:40;49.67;;;11.63;;
28545;SDS011;15749;49.606;8.738;2022-10-13T16:45:10;13.00;;;9.67;;
28545;SDS011;15749;49.606;8.738;2022-10-13T16:47:40;10.57;;;9.43;;
28545;SDS011;15749;49.606;8.738;2022-10-13T16:50:09;10.40;;;8.80;;
28545;SDS011;15749;49.606;8.738;2022-10-13T16:52:38;8.63;;;7.83;;
28545;SDS011;15749;49.606;8.738;2022-10-13T16:55:08;9.00;;;8.10;;
28545;SDS011;15749;49.606;8.738;2022-10-13T16:57:37;14.00;;;9.07;;
28545;SDS011;15749;49.606;8.738;2022-10-13T17:00:08;16.67;;;10.50;;
28545;SDS011;15749;49.606;8.738;2022-10-13T17:02:39;12.43;;;10.47;;
28545;SDS011;15749;49.606;8.738;2022-10-13T17:05:08;12.80;;;10.93;;
28545;SDS011;15749;49.606;8.738;2022-10-13T17:07:37;10.37;;;9.47;;
28545;SDS011;15749;49.606;8.738;2022-10-13T17:10:07;10.20;;;8.50;;
28545;SDS011;15749;49.606;8.738;2022-10-13T17:12:37;16.77;;;9.07;;
28545;SDS011;15749;49.606;8.738;2022-10-13T17:15:08;10.43;;;9.37;;
28545;SDS011;15749;49.606;8.738;2022-10-13T17:17:38;10.80;;;9.70;;
28545;SDS011;15749;49.606;8.738;2022-10-13T17:20:08;9.67;;;8.77;;
28545;SDS011;15749;49.606;8.738;2022-10-13T17:22:39;11.67;;;9.77;;
28545;SDS011;15749;49.606;8.738;2022-10-13T17:25:08;10.40;;;9.40;;
28545;SDS011;15749;49.606;8.738;2022-10-13T17:27:39;23.97;;;10.43;;
28545;SDS011;15749;49.606;8.738;2022-10-13T17:30:10;10.97;;;9.80;;
28545;SDS011;15749;49.606;8.738;2022-10-13T17:32:41;11.30;;;10.20;;
28545;SDS011;15749;49.606;8.738;2022-10-13T17:35:10;9.67;;;8.77;;
28545;SDS011;15749;49.606;8.738;2022-10-13T17:37:43;9.70;;;8.77;;
28545;SDS011;15749;49.606;8.738;2022-10-13T17:40:13;11.97;;;9.93;;
28545;SDS011;15749;49.606;8.738;2022-10-13T17:42:42;19.03;;;10.00;;